sensor_id;sensor_type;location;lat;lon;timestamp;P1;durP1;ratioP1;P2;durP2;ratioP2
12332;SDS011;6232;48.094;11.288;2023-05-27T00:00:52;13.27;;;11.40;;
12332;SDS011;6232;48.094;11.288;2023-05-27T00:03:37;15.13;;;10.47;;
12332;SDS011;6232;48.094;11.288;2023-05-27T00:06:23;18.90;;;10.00;;
12332;SDS011;6232;48.094;11.288;2023-05-27T00:09:08;14.60;;;10.93;;
12332;SDS011;6232;48.094;11.288;2023-05-27T00:11:54;12.00;;;9.63;;
12332;SDS011;6232;48.094;11.288;2023-05-27T00:14:40;19.73;;;9.50;;
12332;SDS011;6232;48.094;11.288;2023-05-27T00:17:26;14.40;;;10.30;;
12332;SDS011;6232;48.094;11.288;2023-05-27T00:20:11;19.63;;;9.57;;
12332;SDS011;6232;48.094;11.288;2023-05-27T00:22:58;12.87;;;9.70;;
12332;SDS011;6232;48.094;11.288;2023-05-27T00:25:45;12.77;;;9.20;;
12332;SDS011;6232;48.094;11.288;2023-05-27T00:28:32;18.73;;;10.80;;
12332;SDS011;6232;48.094;11.288;2023-05-27T00:31:18;17.87;;;10.20;;
12332;SDS011;6232;48.094;11.288;2023-05-27T00:34:03;13.10;;;10.63;;
12332;SDS011;6232;48.094;11.288;2023-05-27T00:36:49;11.40;;;9.10;;
12332;SDS011;6232;48.094;11.288;2023-05-27T00:39:34;18.50;;;10.27;;
12332;SDS011;6232;48.094;11.288;2023-05-27T00:42:20;15.10;;;9.43;;
12332;SDS011;6232;48.094;11.288;2023-05-27T00:45:06;14.07;;;9.27;;
12332;SDS011;6232;48.094;11.288;2023-05-27T00:47:52;13.97;;;10.20;;
12332;SDS011;6232;48.094;11.288;2023-05-27T00:50:38;16.93;;;10.60;;
12332;SDS011;6232;48.094;11.288;2023-05-27T00:53:23;17.73;;;11.90;;
12332;SDS011;6232;48.094;11.288;2023-05-27T00:56:10;13.33;;;9.63;;
12332;SDS011;6232;48.094;11.288;2023-05-27T00:58:56;17.10;;;11.07;;
12332;SDS011;6232;48.094;11.288;2023-05-27T01:01:41;11.97;;;9.23;;
12332;SDS011;6232;48.094;11.288;2023-05-27T01:04:29;16.47;;;10.17;;
12332;SDS011;6232;48.094;11.288;2023-05-27T01:07:16;16.17;;;9.20;;
12332;SDS011;6232;48.094;11.288;2023-05-27T01:10:07;13.73;;;9.90;;
12332;SDS011;6232;48.094;11.288;2023-05-27T01:12:59;18.73;;;10.07;;
12332;SDS011;6232;48.094;11.288;2023-05-27T01:15:46;19.70;;;11.20;;
12332;SDS011;6232;48.094;11.288;2023-05-27T01:18:31;18.33;;;11.10;;
12332;SDS011;6232;48.094;11.288;2023-05-27T01:21:18;15.70;;;9.77;;
12332;SDS011;6232;48.094;11.288;2023-05-27T01:24:05;14.43;;;9.23;;
12332;SDS011;6232;48.094;11.288;2023-05-27T01:26:51;13.83;;;9.70;;
12332;SDS011;6232;48.094;11.288;2023-05-27T01:29:36;11.60;;;10.20;;
12332;SDS011;6232;48.094;11.288;2023-05-27T01:32:33;15.80;;;10.73;;
12332;SDS011;6232;48.094;11.288;2023-05-27T01:38:09;17.30;;;11.30;;
12332;SDS011;6232;48.094;11.288;2023-05-27T01:40:55;15.97;;;11.77;;
12332;SDS011;6232;48.094;11.288;2023-05-27T01:43:40;16.00;;;10.63;;
12332;SDS011;6232;48.094;11.288;2023-05-27T01:46:26;18.30;;;10.90;;
12332;SDS011;6232;48.094;11.288;2023-05-27T01:49:12;14.23;;;10.57;;
12332;SDS011;6232;48.094;11.288;2023-05-27T01:51:58;13.57;;;10.73;;
12332;SDS011;6232;48.094;11.288;2023-05-27T01:54:43;15.97;;;11.37;;
12332;SDS011;6232;48.094;11.288;2023-05-27T01:57:29;19.10;;;11.37;;
12332;SDS011;6232;48.094;11.288;2023-05-27T02:00:14;17.33;;;11.87;;
12332;SDS011;6232;48.094;11.288;2023-05-27T02:03:00;11.40;;;10.20;;
12332;SDS011;6232;48.094;11.288;2023-05-27T02:05:46;21.00;;;10.20;;
12332;SDS011;6232;48.094;11.288;2023-05-27T02:08:32;16.87;;;12.50;;
12332;SDS011;6232;48.094;11.288;2023-05-27T02:11:19;17.37;;;11.90;;
12332;SDS011;6232;48.094;11.288;2023-05-27T02:14:04;14.63;;;11.97;;
12332;SDS011;6232;48.094;11.288;2023-05-27T02:16:52;16.60;;;11.00;;
12332;SDS011;6232;48.094;11.288;2023-05-27T02:19:38;12.47;;;11.13;;
12332;SDS011;6232;48.094;11.288;2023-05-27T02:22:23;13.10;;;11.60;;
12332;SDS011;6232;48.094;11.288;2023-05-27T02:25:09;22.57;;;12.00;;
12332;SDS011;6232;48.094;11.288;2023-05-27T02:27:54;17.33;;;13.10;;
12332;SDS011;6232;48.094;11.288;2023-05-27T02:30:40;16.57;;;12.93;;
12332;SDS011;6232;48.094;11.288;2023-05-27T02:33:25;19.57;;;12.80;;
12332;SDS011;6232;48.094;11.288;2023-05-27T02:36:11;20.30;;;12.13;;
12332;SDS011;6232;48.094;11.288;2023-05-27T02:38:57;19.13;;;11.60;;
12332;SDS011;6232;48.094;11.288;2023-05-27T02:41:43;17.63;;;12.63;;
12332;SDS011;6232;48.094;11.288;2023-05-27T02:44:29;17.63;;;13.53;;
12332;SDS011;6232;48.094;11.288;2023-05-27T02:47:14;15.17;;;11.93;;
12332;SDS011;6232;48.094;11.288;2023-05-27T02:50:00;20.83;;;13.10;;
12332;SDS011;6232;48.094;11.288;2023-05-27T02:52:45;24.03;;;13.20;;
12332;SDS011;6232;48.094;11.288;2023-05-27T02:55:31;31.80;;;14.33;;
12332;SDS011;6232;48.094;11.288;2023-05-27T02:58:16;19.77;;;11.80;;
12332;SDS011;6232;48.094;11.288;2023-05-27T03:01:02;20.30;;;13.27;;
12332;SDS011;6232;48.094;11.288;2023-05-27T03:03:47;18.73;;;13.37;;
12332;SDS011;6232;48.094;11.288;2023-05-27T03:06:33;21.60;;;13.33;;
12332;SDS011;6232;48.094;11.288;2023-05-27T03:09:18;23.30;;;13.73;;
12332;SDS011;6232;48.094;11.288;2023-05-27T03:12:04;17.87;;;13.80;;
12332;SDS011;6232;48.094;11.288;2023-05-27T03:14:50;21.00;;;14.30;;
12332;SDS011;6232;48.094;11.288;2023-05-27T03:17:36;17.53;;;12.93;;
12332;SDS011;6232;48.094;11.288;2023-05-27T03:20:22;17.03;;;14.00;;
12332;SDS011;6232;48.094;11.288;2023-05-27T03:23:08;23.43;;;14.20;;
12332;SDS011;6232;48.094;11.288;2023-05-27T03:25:53;20.10;;;13.90;;
12332;SDS011;6232;48.094;11.288;2023-05-27T03:28:39;17.70;;;13.57;;
12332;SDS011;6232;48.094;11.288;2023-05-27T03:31:25;17.33;;;13.27;;
12332;SDS011;6232;48.094;11.288;2023-05-27T03:34:11;17.20;;;13.10;;
12332;SDS011;6232;48.094;11.288;2023-05-27T03:36:56;18.40;;;14.00;;
12332;SDS011;6232;48.094;11.288;2023-05-27T03:39:42;22.70;;;15.00;;
12332;SDS011;6232;48.094;11.288;2023-05-27T03:42:27;25.37;;;14.80;;
12332;SDS011;6232;48.094;11.288;2023-05-27T03:45:13;17.13;;;13.73;;
12332;SDS011;6232;48.094;11.288;2023-05-27T03:47:58;19.80;;;13.80;;
12332;SDS011;6232;48.094;11.288;2023-05-27T03:50:44;19.57;;;14.27;;
12332;SDS011;6232;48.094;11.288;2023-05-27T03:53:30;18.47;;;13.53;;
12332;SDS011;6232;48.094;11.288;2023-05-27T03:56:16;28.53;;;16.10;;
12332;SDS011;6232;48.094;11.288;2023-05-27T03:59:02;25.20;;;15.00;;
12332;SDS011;6232;48.094;11.288;2023-05-27T04:01:47;21.27;;;14.50;;
12332;SDS011;6232;48.094;11.288;2023-05-27T04:04:34;18.13;;;14.00;;
12332;SDS011;6232;48.094;11.288;2023-05-27T04:07:19;20.23;;;14.87;;
12332;SDS011;6232;48.094;11.288;2023-05-27T04:10:05;16.53;;;13.90;;
12332;SDS011;6232;48.094;11.288;2023-05-27T04:12:55;19.33;;;13.97;;
12332;SDS011;6232;48.094;11.288;2023-05-27T04:15:40;21.47;;;14.77;;
12332;SDS011;6232;48.094;11.288;2023-05-27T04:18:27;17.87;;;14.30;;
12332;SDS011;6232;48.094;11.288;2023-05-27T04:21:13;19.40;;;13.87;;
12332;SDS011;6232;48.094;11.288;2023-05-27T04:23:59;16.60;;;13.20;;
12332;SDS011;6232;48.094;11.288;2023-05-27T04:26:45;17.83;;;12.33;;
12332;SDS011;6232;48.094;11.288;2023-05-27T04:29:31;20.10;;;13.47;;
12332;SDS011;6232;48.094;11.288;2023-05-27T04:32:17;15.57;;;13.10;;
12332;SDS011;6232;48.094;11.288;2023-05-27T04:35:03;17.60;;;13.53;;
12332;SDS011;6232;48.094;11.288;2023-05-27T04:37:49;20.87;;;15.30;;
12332;SDS011;6232;48.094;11.288;2023-05-27T04:40:37;15.30;;;13.13;;
12332;SDS011;6232;48.094;11.288;2023-05-27T04:43:23;24.47;;;13.60;;
12332;SDS011;6232;48.094;11.288;2023-05-27T04:46:08;26.60;;;15.63;;
12332;SDS011;6232;48.094;11.288;2023-05-27T04:48:54;20.17;;;13.07;;
12332;SDS011;6232;48.094;11.288;2023-05-27T04:51:40;20.80;;;13.50;;
12332;SDS011;6232;48.094;11.288;2023-05-27T04:54:26;16.67;;;13.10;;
12332;SDS011;6232;48.094;11.288;2023-05-27T04:57:12;18.50;;;13.00;;
12332;SDS011;6232;48.094;11.288;2023-05-27T04:59:57;17.20;;;13.90;;
12332;SDS011;6232;48.094;11.288;2023-05-27T05:02:49;17.97;;;12.30;;
12332;SDS011;6232;48.094;11.288;2023-05-27T05:05:35;18.20;;;12.10;;
12332;SDS011;6232;48.094;11.288;2023-05-27T05:08:20;15.37;;;11.43;;
12332;SDS011;6232;48.094;11.288;2023-05-27T05:11:06;19.43;;;11.23;;
12332;SDS011;6232;48.094;11.288;2023-05-27T05:13:52;19.33;;;11.53;;
12332;SDS011;6232;48.094;11.288;2023-05-27T05:16:37;20.30;;;11.50;;
12332;SDS011;6232;48.094;11.288;2023-05-27T05:19:23;16.77;;;12.37;;
12332;SDS011;6232;48.094;11.288;2023-05-27T05:22:08;11.40;;;10.20;;
12332;SDS011;6232;48.094;11.288;2023-05-27T05:24:54;14.30;;;11.17;;
12332;SDS011;6232;48.094;11.288;2023-05-27T05:27:41;20.27;;;11.70;;
12332;SDS011;6232;48.094;11.288;2023-05-27T05:30:26;18.07;;;10.50;;
12332;SDS011;6232;48.094;11.288;2023-05-27T05:33:12;13.40;;;10.70;;
12332;SDS011;6232;48.094;11.288;2023-05-27T05:35:57;17.67;;;11.03;;
12332;SDS011;6232;48.094;11.288;2023-05-27T05:38:43;16.77;;;11.93;;
12332;SDS011;6232;48.094;11.288;2023-05-27T05:41:28;12.53;;;10.10;;
12332;SDS011;6232;48.094;11.288;2023-05-27T05:44:14;11.73;;;9.57;;
12332;SDS011;6232;48.094;11.288;2023-05-27T05:47:00;12.50;;;10.10;;
12332;SDS011;6232;48.094;11.288;2023-05-27T05:49:46;14.97;;;10.57;;
12332;SDS011;6232;48.094;11.288;2023-05-27T05:52:31;13.20;;;10.40;;
12332;SDS011;6232;48.094;11.288;2023-05-27T05:55:17;16.20;;;10.43;;
12332;SDS011;6232;48.094;11.288;2023-05-27T05:58:02;21.87;;;12.43;;
12332;SDS011;6232;48.094;11.288;2023-05-27T06:00:48;17.70;;;11.93;;
12332;SDS011;6232;48.094;11.288;2023-05-27T06:03:33;19.90;;;9.27;;
12332;SDS011;6232;48.094;11.288;2023-05-27T06:06:19;11.40;;;8.37;;
12332;SDS011;6232;48.094;11.288;2023-05-27T06:09:04;15.10;;;8.43;;
12332;SDS011;6232;48.094;11.288;2023-05-27T06:11:50;11.47;;;8.57;;
12332;SDS011;6232;48.094;11.288;2023-05-27T06:14:36;10.03;;;7.00;;
12332;SDS011;6232;48.094;11.288;2023-05-27T06:17:22;9.13;;;6.80;;
12332;SDS011;6232;48.094;11.288;2023-05-27T06:20:07;12.70;;;7.20;;
12332;SDS011;6232;48.094;11.288;2023-05-27T06:22:53;11.83;;;6.87;;
12332;SDS011;6232;48.094;11.288;2023-05-27T06:25:39;14.47;;;7.17;;
12332;SDS011;6232;48.094;11.288;2023-05-27T06:28:24;7.40;;;6.20;;
12332;SDS011;6232;48.094;11.288;2023-05-27T06:31:10;13.70;;;7.03;;
12332;SDS011;6232;48.094;11.288;2023-05-27T06:33:56;11.37;;;6.20;;
12332;SDS011;6232;48.094;11.288;2023-05-27T06:36:41;14.70;;;7.33;;
12332;SDS011;6232;48.094;11.288;2023-05-27T06:39:27;10.73;;;6.20;;
12332;SDS011;6232;48.094;11.288;2023-05-27T06:42:13;10.50;;;6.33;;
12332;SDS011;6232;48.094;11.288;2023-05-27T06:44:58;7.47;;;6.13;;
12332;SDS011;6232;48.094;11.288;2023-05-27T06:47:44;8.97;;;6.47;;
12332;SDS011;6232;48.094;11.288;2023-05-27T06:50:30;11.70;;;6.20;;
12332;SDS011;6232;48.094;11.288;2023-05-27T06:53:15;9.70;;;5.93;;
12332;SDS011;6232;48.094;11.288;2023-05-27T06:56:01;10.53;;;5.63;;
12332;SDS011;6232;48.094;11.288;2023-05-27T06:58:46;15.20;;;7.20;;
12332;SDS011;6232;48.094;11.288;2023-05-27T07:01:32;12.67;;;7.00;;
12332;SDS011;6232;48.094;11.288;2023-05-27T07:04:17;11.47;;;6.77;;
12332;SDS011;6232;48.094;11.288;2023-05-27T07:07:03;8.27;;;6.57;;
12332;SDS011;6232;48.094;11.288;2023-05-27T07:09:49;13.53;;;6.17;;
12332;SDS011;6232;48.094;11.288;2023-05-27T07:12:34;9.83;;;6.20;;
12332;SDS011;6232;48.094;11.288;2023-05-27T07:15:20;10.77;;;6.10;;
12332;SDS011;6232;48.094;11.288;2023-05-27T07:18:06;10.77;;;6.57;;
12332;SDS011;6232;48.094;11.288;2023-05-27T07:20:51;10.63;;;6.53;;
12332;SDS011;6232;48.094;11.288;2023-05-27T07:23:37;8.17;;;6.13;;
12332;SDS011;6232;48.094;11.288;2023-05-27T07:26:22;11.93;;;6.67;;
12332;SDS011;6232;48.094;11.288;2023-05-27T07:29:08;13.03;;;5.70;;
12332;SDS011;6232;48.094;11.288;2023-05-27T07:31:54;13.00;;;5.60;;
12332;SDS011;6232;48.094;11.288;2023-05-27T07:34:39;9.00;;;6.10;;
12332;SDS011;6232;48.094;11.288;2023-05-27T07:37:26;15.83;;;6.03;;
12332;SDS011;6232;48.094;11.288;2023-05-27T07:40:12;10.20;;;6.33;;
12332;SDS011;6232;48.094;11.288;2023-05-27T07:42:57;11.67;;;6.10;;
12332;SDS011;6232;48.094;11.288;2023-05-27T07:45:43;13.97;;;6.33;;
12332;SDS011;6232;48.094;11.288;2023-05-27T07:48:28;12.33;;;6.70;;
12332;SDS011;6232;48.094;11.288;2023-05-27T07:51:14;10.17;;;7.17;;
12332;SDS011;6232;48.094;11.288;2023-05-27T07:54:00;20.17;;;6.90;;
12332;SDS011;6232;48.094;11.288;2023-05-27T07:56:45;11.50;;;6.50;;
12332;SDS011;6232;48.094;11.288;2023-05-27T07:59:31;14.23;;;6.60;;
12332;SDS011;6232;48.094;11.288;2023-05-27T08:02:16;12.43;;;6.10;;
12332;SDS011;6232;48.094;11.288;2023-05-27T08:05:02;12.03;;;6.33;;
12332;SDS011;6232;48.094;11.288;2023-05-27T08:07:49;9.77;;;6.37;;
12332;SDS011;6232;48.094;11.288;2023-05-27T08:10:35;13.57;;;5.87;;
12332;SDS011;6232;48.094;11.288;2023-05-27T08:13:20;11.33;;;6.17;;
12332;SDS011;6232;48.094;11.288;2023-05-27T08:16:06;8.37;;;6.40;;
12332;SDS011;6232;48.094;11.288;2023-05-27T08:18:52;11.03;;;5.20;;
12332;SDS011;6232;48.094;11.288;2023-05-27T08:21:38;16.03;;;6.13;;
12332;SDS011;6232;48.094;11.288;2023-05-27T08:24:23;11.73;;;6.17;;
12332;SDS011;6232;48.094;11.288;2023-05-27T08:27:13;11.27;;;5.40;;
12332;SDS011;6232;48.094;11.288;2023-05-27T08:29:59;11.13;;;6.10;;
12332;SDS011;6232;48.094;11.288;2023-05-27T08:32:45;11.57;;;6.00;;
12332;SDS011;6232;48.094;11.288;2023-05-27T08:35:31;7.47;;;5.33;;
12332;SDS011;6232;48.094;11.288;2023-05-27T08:38:16;9.70;;;5.40;;
12332;SDS011;6232;48.094;11.288;2023-05-27T08:41:02;17.90;;;5.82;;
12332;SDS011;6232;48.094;11.288;2023-05-27T08:43:48;8.70;;;5.23;;
12332;SDS011;6232;48.094;11.288;2023-05-27T08:46:34;8.27;;;4.90;;
12332;SDS011;6232;48.094;11.288;2023-05-27T08:49:21;11.73;;;5.17;;
12332;SDS011;6232;48.094;11.288;2023-05-27T08:52:08;13.53;;;5.50;;
12332;SDS011;6232;48.094;11.288;2023-05-27T08:54:54;10.33;;;5.67;;
12332;SDS011;6232;48.094;11.288;2023-05-27T08:57:42;10.90;;;5.93;;
12332;SDS011;6232;48.094;11.288;2023-05-27T09:00:29;8.03;;;5.23;;
12332;SDS011;6232;48.094;11.288;2023-05-27T09:03:14;9.83;;;5.20;;
12332;SDS011;6232;48.094;11.288;2023-05-27T09:06:00;7.90;;;5.50;;
12332;SDS011;6232;48.094;11.288;2023-05-27T09:08:48;10.77;;;4.80;;
12332;SDS011;6232;48.094;11.288;2023-05-27T09:11:34;11.37;;;5.33;;
12332;SDS011;6232;48.094;11.288;2023-05-27T09:14:23;10.80;;;5.50;;
12332;SDS011;6232;48.094;11.288;2023-05-27T09:17:09;11.23;;;5.07;;
12332;SDS011;6232;48.094;11.288;2023-05-27T09:19:54;15.20;;;5.20;;
12332;SDS011;6232;48.094;11.288;2023-05-27T09:22:40;10.77;;;6.20;;
12332;SDS011;6232;48.094;11.288;2023-05-27T09:25:27;10.80;;;6.10;;
12332;SDS011;6232;48.094;11.288;2023-05-27T09:28:19;11.77;;;5.43;;
12332;SDS011;6232;48.094;11.288;2023-05-27T09:31:05;14.73;;;5.70;;
12332;SDS011;6232;48.094;11.288;2023-05-27T09:33:52;9.30;;;4.77;;
12332;SDS011;6232;48.094;11.288;2023-05-27T09:36:50;17.40;;;5.83;;
12332;SDS011;6232;48.094;11.288;2023-05-27T09:39:36;11.10;;;5.30;;
12332;SDS011;6232;48.094;11.288;2023-05-27T09:42:24;9.63;;;5.20;;
12332;SDS011;6232;48.094;11.288;2023-05-27T09:45:10;7.00;;;5.00;;
12332;SDS011;6232;48.094;11.288;2023-05-27T09:47:57;10.30;;;5.10;;
12332;SDS011;6232;48.094;11.288;2023-05-27T09:50:44;9.97;;;5.60;;
12332;SDS011;6232;48.094;11.288;2023-05-27T09:53:31;12.23;;;5.97;;
12332;SDS011;6232;48.094;11.288;2023-05-27T09:56:18;7.83;;;4.83;;
12332;SDS011;6232;48.094;11.288;2023-05-27T09:59:04;9.70;;;5.17;;
12332;SDS011;6232;48.094;11.288;2023-05-27T10:01:51;11.90;;;5.57;;
12332;SDS011;6232;48.094;11.288;2023-05-27T10:04:37;5.37;;;4.70;;
12332;SDS011;6232;48.094;11.288;2023-05-27T10:07:23;9.77;;;5.20;;
12332;SDS011;6232;48.094;11.288;2023-05-27T10:10:10;11.57;;;4.83;;
12332;SDS011;6232;48.094;11.288;2023-05-27T10:12:56;7.40;;;4.57;;
12332;SDS011;6232;48.094;11.288;2023-05-27T10:15:46;9.33;;;4.97;;
12332;SDS011;6232;48.094;11.288;2023-05-27T10:18:32;9.30;;;4.90;;
12332;SDS011;6232;48.094;11.288;2023-05-27T10:21:20;6.93;;;4.70;;
12332;SDS011;6232;48.094;11.288;2023-05-27T10:24:10;7.97;;;4.63;;
12332;SDS011;6232;48.094;11.288;2023-05-27T10:26:59;6.63;;;4.73;;
12332;SDS011;6232;48.094;11.288;2023-05-27T10:29:56;10.27;;;5.50;;
12332;SDS011;6232;48.094;11.288;2023-05-27T10:32:43;13.77;;;5.60;;
12332;SDS011;6232;48.094;11.288;2023-05-27T10:35:38;8.50;;;5.40;;
12332;SDS011;6232;48.094;11.288;2023-05-27T10:38:23;6.27;;;4.43;;
12332;SDS011;6232;48.094;11.288;2023-05-27T10:41:09;7.07;;;4.50;;
12332;SDS011;6232;48.094;11.288;2023-05-27T10:43:58;7.07;;;4.87;;
12332;SDS011;6232;48.094;11.288;2023-05-27T10:46:44;12.60;;;4.83;;
12332;SDS011;6232;48.094;11.288;2023-05-27T10:49:33;7.30;;;4.60;;
12332;SDS011;6232;48.094;11.288;2023-05-27T10:52:23;5.13;;;4.17;;
12332;SDS011;6232;48.094;11.288;2023-05-27T10:55:10;13.20;;;4.63;;
12332;SDS011;6232;48.094;11.288;2023-05-27T10:57:56;7.63;;;5.27;;
12332;SDS011;6232;48.094;11.288;2023-05-27T11:00:44;7.60;;;4.30;;
12332;SDS011;6232;48.094;11.288;2023-05-27T11:03:30;8.93;;;4.50;;
12332;SDS011;6232;48.094;11.288;2023-05-27T11:06:16;5.67;;;5.03;;
12332;SDS011;6232;48.094;11.288;2023-05-27T11:09:04;7.17;;;4.53;;
12332;SDS011;6232;48.094;11.288;2023-05-27T11:11:50;8.80;;;4.75;;
12332;SDS011;6232;48.094;11.288;2023-05-27T11:14:36;9.43;;;4.80;;
12332;SDS011;6232;48.094;11.288;2023-05-27T11:17:21;7.15;;;4.45;;
12332;SDS011;6232;48.094;11.288;2023-05-27T11:20:07;6.85;;;4.38;;
12332;SDS011;6232;48.094;11.288;2023-05-27T11:22:53;10.65;;;4.65;;
12332;SDS011;6232;48.094;11.288;2023-05-27T11:25:45;9.25;;;4.93;;
12332;SDS011;6232;48.094;11.288;2023-05-27T11:28:31;8.73;;;4.90;;
12332;SDS011;6232;48.094;11.288;2023-05-27T11:31:21;5.57;;;4.25;;
12332;SDS011;6232;48.094;11.288;2023-05-27T11:34:13;8.00;;;4.72;;
12332;SDS011;6232;48.094;11.288;2023-05-27T11:37:02;7.63;;;4.13;;
12332;SDS011;6232;48.094;11.288;2023-05-27T11:39:51;10.43;;;4.10;;
12332;SDS011;6232;48.094;11.288;2023-05-27T11:42:37;7.72;;;4.85;;
12332;SDS011;6232;48.094;11.288;2023-05-27T11:45:22;6.20;;;3.90;;
12332;SDS011;6232;48.094;11.288;2023-05-27T11:48:08;9.07;;;4.95;;
12332;SDS011;6232;48.094;11.288;2023-05-27T11:50:54;6.45;;;4.28;;
12332;SDS011;6232;48.094;11.288;2023-05-27T11:53:40;6.50;;;5.07;;
12332;SDS011;6232;48.094;11.288;2023-05-27T11:56:29;6.80;;;4.30;;
12332;SDS011;6232;48.094;11.288;2023-05-27T11:59:15;7.97;;;4.38;;
12332;SDS011;6232;48.094;11.288;2023-05-27T12:02:00;6.07;;;4.50;;
12332;SDS011;6232;48.094;11.288;2023-05-27T12:04:46;8.10;;;4.53;;
12332;SDS011;6232;48.094;11.288;2023-05-27T12:07:31;7.57;;;4.60;;
12332;SDS011;6232;48.094;11.288;2023-05-27T12:10:17;9.00;;;5.18;;
12332;SDS011;6232;48.094;11.288;2023-05-27T12:13:06;9.20;;;4.60;;
12332;SDS011;6232;48.094;11.288;2023-05-27T12:15:51;8.35;;;4.68;;
12332;SDS011;6232;48.094;11.288;2023-05-27T12:18:37;7.40;;;4.60;;
12332;SDS011;6232;48.094;11.288;2023-05-27T12:21:24;5.88;;;4.70;;
12332;SDS011;6232;48.094;11.288;2023-05-27T12:24:10;6.32;;;4.68;;
12332;SDS011;6232;48.094;11.288;2023-05-27T12:26:55;6.72;;;4.55;;
12332;SDS011;6232;48.094;11.288;2023-05-27T12:29:41;7.88;;;4.45;;
12332;SDS011;6232;48.094;11.288;2023-05-27T12:32:26;5.53;;;4.15;;
12332;SDS011;6232;48.094;11.288;2023-05-27T12:35:12;10.48;;;4.20;;
12332;SDS011;6232;48.094;11.288;2023-05-27T12:37:58;5.45;;;4.03;;
12332;SDS011;6232;48.094;11.288;2023-05-27T12:40:44;8.65;;;4.43;;
12332;SDS011;6232;48.094;11.288;2023-05-27T12:43:29;7.45;;;4.75;;
12332;SDS011;6232;48.094;11.288;2023-05-27T12:46:15;6.68;;;4.32;;
12332;SDS011;6232;48.094;11.288;2023-05-27T12:49:01;6.60;;;4.43;;
12332;SDS011;6232;48.094;11.288;2023-05-27T12:51:46;10.43;;;3.92;;
12332;SDS011;6232;48.094;11.288;2023-05-27T12:54:32;6.13;;;4.43;;
12332;SDS011;6232;48.094;11.288;2023-05-27T12:57:17;7.65;;;4.13;;
12332;SDS011;6232;48.094;11.288;2023-05-27T13:00:03;6.47;;;3.35;;
12332;SDS011;6232;48.094;11.288;2023-05-27T13:02:49;4.72;;;4.22;;
12332;SDS011;6232;48.094;11.288;2023-05-27T13:05:34;6.93;;;4.28;;
12332;SDS011;6232;48.094;11.288;2023-05-27T13:08:20;6.53;;;4.15;;
12332;SDS011;6232;48.094;11.288;2023-05-27T13:11:06;8.73;;;3.97;;
12332;SDS011;6232;48.094;11.288;2023-05-27T13:13:52;5.80;;;3.58;;
12332;SDS011;6232;48.094;11.288;2023-05-27T13:16:38;5.50;;;4.30;;
12332;SDS011;6232;48.094;11.288;2023-05-27T13:19:23;6.80;;;3.90;;
12332;SDS011;6232;48.094;11.288;2023-05-27T13:22:09;9.60;;;4.10;;
12332;SDS011;6232;48.094;11.288;2023-05-27T13:24:55;9.93;;;4.20;;
12332;SDS011;6232;48.094;11.288;2023-05-27T13:27:41;5.78;;;3.83;;
12332;SDS011;6232;48.094;11.288;2023-05-27T13:30:27;5.97;;;4.05;;
12332;SDS011;6232;48.094;11.288;2023-05-27T13:33:13;6.95;;;3.38;;
12332;SDS011;6232;48.094;11.288;2023-05-27T13:35:58;7.10;;;4.00;;
12332;SDS011;6232;48.094;11.288;2023-05-27T13:38:44;6.63;;;3.85;;
12332;SDS011;6232;48.094;11.288;2023-05-27T13:41:29;5.10;;;3.78;;
12332;SDS011;6232;48.094;11.288;2023-05-27T13:44:15;12.48;;;3.97;;
12332;SDS011;6232;48.094;11.288;2023-05-27T13:47:00;6.93;;;4.00;;
12332;SDS011;6232;48.094;11.288;2023-05-27T13:49:46;4.97;;;4.05;;
12332;SDS011;6232;48.094;11.288;2023-05-27T13:52:32;5.85;;;4.10;;
12332;SDS011;6232;48.094;11.288;2023-05-27T13:55:17;5.97;;;4.20;;
12332;SDS011;6232;48.094;11.288;2023-05-27T13:58:03;7.80;;;4.55;;
12332;SDS011;6232;48.094;11.288;2023-05-27T14:00:48;4.88;;;3.63;;
12332;SDS011;6232;48.094;11.288;2023-05-27T14:03:34;6.15;;;4.45;;
12332;SDS011;6232;48.094;11.288;2023-05-27T14:06:20;5.57;;;3.65;;
12332;SDS011;6232;48.094;11.288;2023-05-27T14:09:05;4.60;;;3.42;;
12332;SDS011;6232;48.094;11.288;2023-05-27T14:11:51;9.38;;;4.03;;
12332;SDS011;6232;48.094;11.288;2023-05-27T14:14:36;7.95;;;3.90;;
12332;SDS011;6232;48.094;11.288;2023-05-27T14:17:22;5.03;;;3.63;;
12332;SDS011;6232;48.094;11.288;2023-05-27T14:20:07;6.53;;;3.83;;
12332;SDS011;6232;48.094;11.288;2023-05-27T14:22:55;5.85;;;4.18;;
12332;SDS011;6232;48.094;11.288;2023-05-27T14:25:42;8.82;;;4.03;;
12332;SDS011;6232;48.094;11.288;2023-05-27T14:28:27;5.55;;;3.70;;
12332;SDS011;6232;48.094;11.288;2023-05-27T14:31:13;7.40;;;4.47;;
12332;SDS011;6232;48.094;11.288;2023-05-27T14:33:58;10.75;;;4.13;;
12332;SDS011;6232;48.094;11.288;2023-05-27T14:36:44;4.65;;;3.85;;
12332;SDS011;6232;48.094;11.288;2023-05-27T14:39:30;6.45;;;4.20;;
12332;SDS011;6232;48.094;11.288;2023-05-27T14:42:15;4.95;;;3.50;;
12332;SDS011;6232;48.094;11.288;2023-05-27T14:45:01;6.80;;;3.63;;
12332;SDS011;6232;48.094;11.288;2023-05-27T14:47:47;8.20;;;4.10;;
12332;SDS011;6232;48.094;11.288;2023-05-27T14:50:32;8.60;;;3.38;;
12332;SDS011;6232;48.094;11.288;2023-05-27T14:53:18;4.30;;;3.05;;
12332;SDS011;6232;48.094;11.288;2023-05-27T14:56:04;6.57;;;3.90;;
12332;SDS011;6232;48.094;11.288;2023-05-27T14:58:49;6.00;;;3.67;;
12332;SDS011;6232;48.094;11.288;2023-05-27T15:01:36;7.32;;;3.67;;
12332;SDS011;6232;48.094;11.288;2023-05-27T15:04:21;7.28;;;3.97;;
12332;SDS011;6232;48.094;11.288;2023-05-27T15:07:07;10.63;;;3.80;;
12332;SDS011;6232;48.094;11.288;2023-05-27T15:09:52;10.23;;;3.78;;
12332;SDS011;6232;48.094;11.288;2023-05-27T15:12:44;5.25;;;3.45;;
12332;SDS011;6232;48.094;11.288;2023-05-27T15:15:31;6.65;;;3.70;;
12332;SDS011;6232;48.094;11.288;2023-05-27T15:18:17;4.90;;;3.60;;
12332;SDS011;6232;48.094;11.288;2023-05-27T15:21:02;8.57;;;4.20;;
12332;SDS011;6232;48.094;11.288;2023-05-27T15:23:48;12.68;;;4.75;;
12332;SDS011;6232;48.094;11.288;2023-05-27T15:26:34;7.55;;;4.43;;
12332;SDS011;6232;48.094;11.288;2023-05-27T15:29:19;5.82;;;3.50;;
12332;SDS011;6232;48.094;11.288;2023-05-27T15:32:06;6.97;;;3.97;;
12332;SDS011;6232;48.094;11.288;2023-05-27T15:34:52;6.15;;;4.05;;
12332;SDS011;6232;48.094;11.288;2023-05-27T15:37:37;6.85;;;4.25;;
12332;SDS011;6232;48.094;11.288;2023-05-27T15:40:23;6.40;;;3.30;;
12332;SDS011;6232;48.094;11.288;2023-05-27T15:43:09;6.20;;;3.17;;
12332;SDS011;6232;48.094;11.288;2023-05-27T15:45:54;5.80;;;3.08;;
12332;SDS011;6232;48.094;11.288;2023-05-27T15:48:40;5.60;;;3.72;;
12332;SDS011;6232;48.094;11.288;2023-05-27T15:51:26;4.10;;;3.10;;
12332;SDS011;6232;48.094;11.288;2023-05-27T15:54:11;7.55;;;3.67;;
12332;SDS011;6232;48.094;11.288;2023-05-27T15:56:58;5.38;;;4.00;;
12332;SDS011;6232;48.094;11.288;2023-05-27T15:59:44;7.70;;;3.38;;
12332;SDS011;6232;48.094;11.288;2023-05-27T16:02:29;7.25;;;3.75;;
12332;SDS011;6232;48.094;11.288;2023-05-27T16:05:15;8.25;;;4.18;;
12332;SDS011;6232;48.094;11.288;2023-05-27T16:08:00;5.55;;;3.42;;
12332;SDS011;6232;48.094;11.288;2023-05-27T16:10:50;9.75;;;3.92;;
12332;SDS011;6232;48.094;11.288;2023-05-27T16:13:37;9.88;;;4.43;;
12332;SDS011;6232;48.094;11.288;2023-05-27T16:16:23;4.93;;;3.58;;
12332;SDS011;6232;48.094;11.288;2023-05-27T16:19:08;6.30;;;3.60;;
12332;SDS011;6232;48.094;11.288;2023-05-27T16:21:54;7.18;;;3.80;;
12332;SDS011;6232;48.094;11.288;2023-05-27T16:24:39;9.02;;;3.47;;
12332;SDS011;6232;48.094;11.288;2023-05-27T16:27:25;8.00;;;4.30;;
12332;SDS011;6232;48.094;11.288;2023-05-27T16:30:11;6.43;;;3.40;;